Garland's Hourly Summary for Sunday, May 13, 2018
Hour Temp
(f)
RH
(%)
Solar Rad.
(MJ/m2)
Rainfall
(in)
Wind
(mph)
5/13/2018 12:00 AM 77 59 0 0 6.46
5/13/2018 1:00 AM 76 63 0 0 7.43
5/13/2018 2:00 AM 75 67 0 0 8.12
5/13/2018 3:00 AM 74 72 0 0 8.36
5/13/2018 4:00 AM 73 76 0 0 7.72
5/13/2018 5:00 AM 72 79 0 0 7.65
5/13/2018 6:00 AM 71 83 0 0 7.91
5/13/2018 7:00 AM 70 89 0.03 0 6.28
5/13/2018 8:00 AM 71 84 0.32 0 5.69
5/13/2018 9:00 AM 72 73 0.94 0 7.61
5/13/2018 10:00 AM 74 65 1.26 0 8.92
5/13/2018 11:00 AM 77 61 1.63 0 9.26
5/13/2018 12:00 PM 79 56 2.3 0 8.49
5/13/2018 1:00 PM 80 49 2.09 0 9.09
5/13/2018 2:00 PM 83 46 2.77 0 9.89
5/13/2018 3:00 PM 84 45 2.56 0 9.3
5/13/2018 4:00 PM 85 42 2.42 0 10.23
5/13/2018 5:00 PM 85 40 2.02 0 9.8
5/13/2018 6:00 PM 85 40 1.34 0 9.62
5/13/2018 7:00 PM 84 45 0.67 0 8.81
5/13/2018 8:00 PM 83 46 0.31 0 8.74
5/13/2018 9:00 PM 81 50 0.01 0 5.82
5/13/2018 10:00 PM 80 56 0 0 6.04
5/13/2018 11:00 PM 79 58 0 0 5.44
Data Summary 77 60 20.67 0.00 8.03